createdAt,value
2023-04-06T00:03:50.670Z,6.27
2023-04-06T00:08:01.751Z,7.13
2023-04-06T00:12:10.715Z,5.90
2023-04-06T00:16:19.698Z,5.87
2023-04-06T00:20:28.736Z,5.10
2023-04-06T00:24:39.168Z,5.97
2023-04-06T00:28:48.054Z,5.30
2023-04-06T00:32:57.272Z,5.13
2023-04-06T00:37:06.262Z,4.30
2023-04-06T00:41:16.908Z,4.50
2023-04-06T00:45:25.753Z,4.30
2023-04-06T00:49:35.313Z,5.07
2023-04-06T00:53:44.334Z,5.87
2023-04-06T00:57:55.146Z,5.23
2023-04-06T01:02:04.239Z,4.77
2023-04-06T01:06:13.145Z,5.77
2023-04-06T01:10:29.027Z,4.50
2023-04-06T01:14:39.769Z,3.37
2023-04-06T01:18:48.982Z,4.30
2023-04-06T01:22:59.325Z,6.57
2023-04-06T01:27:08.288Z,3.90
2023-04-06T01:31:17.263Z,5.80
2023-04-06T01:35:28.228Z,4.70
2023-04-06T01:39:38.859Z,5.67
2023-04-06T01:43:49.807Z,5.93
2023-04-06T01:47:58.768Z,4.30
2023-04-06T01:52:07.815Z,5.27
2023-04-06T01:56:18.216Z,5.23
2023-04-06T02:00:27.123Z,3.50
2023-04-06T02:04:36.371Z,5.67
2023-04-06T02:08:45.353Z,6.30
2023-04-06T02:12:55.780Z,6.27
2023-04-06T02:17:04.786Z,4.97
2023-04-06T02:21:13.952Z,6.20
2023-04-06T02:25:22.869Z,5.30
2023-04-06T02:29:33.301Z,4.50
2023-04-06T02:33:42.411Z,6.20
2023-04-06T02:37:51.368Z,4.23
2023-04-06T02:42:00.331Z,6.57
2023-04-06T02:46:10.870Z,5.67
2023-04-06T02:50:19.824Z,8.50
2023-04-06T02:54:28.750Z,5.87
2023-04-06T02:58:38.173Z,5.50
2023-04-06T03:02:48.666Z,6.83
2023-04-06T03:07:00.769Z,6.10
2023-04-06T03:11:10.249Z,6.00
2023-04-06T03:15:19.267Z,5.97
2023-04-06T03:19:29.662Z,6.83
2023-04-06T03:23:38.589Z,6.70
2023-04-06T03:27:47.492Z,7.27
2023-04-06T03:31:56.507Z,5.90
2023-04-06T03:36:08.074Z,7.00
2023-04-06T03:40:17.305Z,9.80
2023-04-06T03:44:26.276Z,7.30
2023-04-06T03:48:35.568Z,7.07
2023-04-06T03:52:46.112Z,9.67
2023-04-06T03:56:55.155Z,7.30
2023-04-06T04:01:04.031Z,6.57
2023-04-06T04:05:13.102Z,6.43
2023-04-06T04:09:23.598Z,9.00
2023-04-06T04:13:32.556Z,7.77
2023-04-06T04:17:43.281Z,7.70
2023-04-06T04:21:53.248Z,7.00
2023-04-06T04:26:03.708Z,6.00
2023-04-06T04:30:12.980Z,5.10
2023-04-06T04:34:25.041Z,7.37
2023-04-06T04:38:34.012Z,8.77
2023-04-06T04:42:44.439Z,6.43
2023-04-06T04:46:53.362Z,9.93
2023-04-06T04:51:02.747Z,6.83
2023-04-06T04:55:11.931Z,9.57
2023-04-06T04:59:22.482Z,8.30
2023-04-06T05:03:31.752Z,12.27
2023-04-06T05:07:40.876Z,13.93
2023-04-06T05:11:49.815Z,6.10
2023-04-06T05:16:00.329Z,7.47
2023-04-06T05:20:10.181Z,6.53
2023-04-06T05:24:19.120Z,9.33
2023-04-06T05:28:28.422Z,6.37
2023-04-06T05:32:39.005Z,8.60
2023-04-06T05:36:47.990Z,11.70
2023-04-06T05:40:57.067Z,6.33
2023-04-06T05:45:06.636Z,10.23
2023-04-06T05:49:17.058Z,10.33
2023-04-06T05:53:27.640Z,8.93
2023-04-06T05:57:36.661Z,10.83
2023-04-06T06:01:45.671Z,11.43
2023-04-06T06:05:56.157Z,9.47
2023-04-06T06:10:05.528Z,8.83
2023-04-06T06:14:14.450Z,10.97
2023-04-06T06:18:23.466Z,10.97
2023-04-06T06:22:33.954Z,10.23
2023-04-06T06:26:43.036Z,10.03
2023-04-06T06:30:51.962Z,12.07
2023-04-06T06:35:01.094Z,9.70
2023-04-06T06:39:11.771Z,10.33
2023-04-06T06:43:21.120Z,12.67
2023-04-06T06:47:29.982Z,11.23
2023-04-06T06:51:39.066Z,12.93
2023-04-06T06:55:50.193Z,13.10
2023-04-06T07:00:01.298Z,13.20
2023-04-06T07:04:11.317Z,15.57
2023-04-06T07:08:20.927Z,15.30
2023-04-06T07:12:31.616Z,17.77
2023-04-06T07:16:40.938Z,12.10
2023-04-06T07:20:50.219Z,14.63
2023-04-06T07:25:02.795Z,14.90
2023-04-06T07:29:23.493Z,12.00
2023-04-06T07:33:39.237Z,14.27
2023-04-06T07:37:48.693Z,11.07
2023-04-06T07:42:00.294Z,7.57
2023-04-06T07:46:11.905Z,6.60
2023-04-06T07:50:21.577Z,7.77
2023-04-06T07:54:31.150Z,8.37
2023-04-06T07:58:40.754Z,10.27
2023-04-06T08:02:51.821Z,8.10
2023-04-06T08:07:01.285Z,11.07
2023-04-06T08:11:10.729Z,11.73
2023-04-06T08:15:20.858Z,13.73
2023-04-06T08:19:31.717Z,12.10
2023-04-06T08:23:46.385Z,11.63
2023-04-06T08:28:07.835Z,9.50
2023-04-06T08:32:17.330Z,12.07
2023-04-06T08:36:29.953Z,10.87
2023-04-06T08:40:41.863Z,10.03
2023-04-06T08:44:54.337Z,2.00
2023-04-06T08:49:08.170Z,2.20
2023-04-06T08:53:24.147Z,2.07
2023-04-06T08:57:34.903Z,3.60
2023-04-06T09:01:47.972Z,2.70
2023-04-06T09:05:57.895Z,1.90
2023-04-06T09:10:10.836Z,2.90
2023-04-06T09:14:35.687Z,2.83
2023-04-06T09:18:47.375Z,1.67
2023-04-06T09:22:59.534Z,2.37
2023-04-06T09:27:12.974Z,2.17
2023-04-06T09:31:26.915Z,4.20
2023-04-06T09:35:36.576Z,2.63
2023-04-06T09:39:45.972Z,2.43
2023-04-06T09:44:06.145Z,2.33
2023-04-06T09:48:15.856Z,6.70
2023-04-06T09:52:26.985Z,2.90
2023-04-06T09:56:42.298Z,2.40
2023-04-06T10:00:59.382Z,3.33
2023-04-06T10:05:12.556Z,3.97
2023-04-06T10:09:26.193Z,2.07
2023-04-06T10:13:36.663Z,3.07
2023-04-06T10:17:48.139Z,2.83
2023-04-06T10:22:00.434Z,1.37
2023-04-06T10:26:17.627Z,3.03
2023-04-06T10:30:28.678Z,2.13
2023-04-06T10:34:39.806Z,2.77
2023-04-06T10:43:16.875Z,3.40
2023-04-06T10:47:27.089Z,2.80
2023-04-06T10:51:41.998Z,2.77
2023-04-06T10:55:53.193Z,1.63
2023-04-06T11:00:02.507Z,3.87
2023-04-06T11:04:15.314Z,2.57
2023-04-06T11:08:34.088Z,2.33
2023-04-06T11:12:44.508Z,2.57
2023-04-06T11:16:54.530Z,4.23
2023-04-06T11:21:05.099Z,2.20
2023-04-06T11:25:18.582Z,2.93
2023-04-06T11:29:30.057Z,4.50
2023-04-06T11:33:40.270Z,2.60
2023-04-06T11:37:51.707Z,4.03
2023-04-06T11:42:07.587Z,1.07
2023-04-06T11:46:22.327Z,3.00
2023-04-06T11:50:37.019Z,2.40
2023-04-06T11:54:47.000Z,0.90
2023-04-06T11:58:58.581Z,2.67
2023-04-06T12:03:07.960Z,2.63
2023-04-06T12:07:17.556Z,3.57
2023-04-06T12:11:27.186Z,2.40
2023-04-06T12:15:39.339Z,3.20
2023-04-06T12:19:48.813Z,4.30
2023-04-06T12:23:58.312Z,5.07
2023-04-06T12:28:07.742Z,3.53
2023-04-06T12:32:19.134Z,5.63
2023-04-06T12:36:28.924Z,2.07
2023-04-06T12:40:41.416Z,5.87
2023-04-06T12:44:51.302Z,3.57
2023-04-06T12:49:03.308Z,8.23
2023-04-06T12:53:13.438Z,3.87
2023-04-06T12:57:23.261Z,4.67
2023-04-06T13:01:32.785Z,5.77
2023-04-06T13:05:48.490Z,5.43
2023-04-06T13:09:58.532Z,6.47
2023-04-06T13:14:08.062Z,5.63
2023-04-06T13:18:17.353Z,5.20
2023-04-06T13:22:28.070Z,4.33
2023-04-06T13:26:37.244Z,6.73
2023-04-06T13:30:50.395Z,5.60
2023-04-06T13:35:01.830Z,4.50
2023-04-06T13:39:12.860Z,6.73
2023-04-06T13:43:22.898Z,4.43
2023-04-06T13:47:33.820Z,4.37
2023-04-06T13:51:43.564Z,5.50
2023-04-06T13:55:58.163Z,5.90
2023-04-06T14:00:10.671Z,4.53
2023-04-06T14:04:19.689Z,4.93
2023-04-06T14:08:28.692Z,5.73
2023-04-06T14:12:39.400Z,5.27
2023-04-06T14:16:48.932Z,6.27
2023-04-06T14:20:58.554Z,8.20
2023-04-06T14:25:08.262Z,7.73
2023-04-06T14:29:20.296Z,4.73
2023-04-06T14:33:29.508Z,6.17
2023-04-06T14:37:39.668Z,6.13
2023-04-06T14:41:51.109Z,3.23
2023-04-06T14:46:08.189Z,9.07
2023-04-06T14:50:19.354Z,4.87
2023-04-06T14:54:28.492Z,5.47
2023-04-06T14:58:37.458Z,3.53
2023-04-06T15:02:47.905Z,4.47
2023-04-06T15:06:56.978Z,4.73
2023-04-06T15:11:08.187Z,3.53
2023-04-06T15:15:17.355Z,3.10
2023-04-06T15:19:28.294Z,5.80
2023-04-06T15:23:37.320Z,5.23
2023-04-06T15:27:46.349Z,6.30
2023-04-06T15:31:55.504Z,6.47
2023-04-06T15:36:10.694Z,6.20
2023-04-06T15:40:19.681Z,7.33
2023-04-06T15:44:28.606Z,5.30
2023-04-06T15:48:37.658Z,4.33
2023-04-06T15:52:48.024Z,5.53
2023-04-06T15:56:57.193Z,6.43
2023-04-06T16:01:14.416Z,4.20
2023-04-06T16:05:23.757Z,4.33
2023-04-06T16:09:36.052Z,4.10
2023-04-06T16:13:49.929Z,7.50
2023-04-06T16:18:04.396Z,4.17
2023-04-06T16:22:13.507Z,8.83
2023-04-06T16:26:23.954Z,4.40
2023-04-06T16:30:33.025Z,3.17
2023-04-06T16:34:42.118Z,5.47
2023-04-06T16:38:51.165Z,5.67
2023-04-06T16:43:01.879Z,4.33
2023-04-06T16:47:11.108Z,5.53
2023-04-06T16:51:21.996Z,5.03
2023-04-06T16:55:31.809Z,4.60
2023-04-06T16:59:42.620Z,5.63
2023-04-06T17:03:52.259Z,3.63
2023-04-06T17:08:01.309Z,4.37
2023-04-06T17:12:10.463Z,6.00
2023-04-06T17:16:21.376Z,3.30
2023-04-06T17:20:30.624Z,2.17
2023-04-06T17:24:39.974Z,3.33
2023-04-06T17:28:50.373Z,3.23
2023-04-06T17:33:02.301Z,4.13
2023-04-06T17:37:11.975Z,3.73
2023-04-06T17:41:22.132Z,3.60
2023-04-06T17:45:31.427Z,4.23
2023-04-06T17:49:43.566Z,5.53
2023-04-06T17:53:52.687Z,3.63
2023-04-06T17:58:03.174Z,2.43
2023-04-06T18:02:12.595Z,7.37
2023-04-06T18:06:25.617Z,4.13
2023-04-06T18:10:38.480Z,6.00
2023-04-06T18:14:47.329Z,3.17
2023-04-06T18:18:58.227Z,3.90
2023-04-06T18:23:08.910Z,2.77
2023-04-06T18:27:19.946Z,3.87
2023-04-06T18:31:28.928Z,3.20
2023-04-06T18:35:38.705Z,5.97
2023-04-06T18:39:49.266Z,5.73
2023-04-06T18:43:58.828Z,4.43
2023-04-06T18:48:08.985Z,4.80
2023-04-06T18:52:18.058Z,5.63
2023-04-06T18:56:28.471Z,7.20
2023-04-06T19:00:38.484Z,5.00
2023-04-06T19:04:47.604Z,4.70
2023-04-06T19:08:57.209Z,3.53
2023-04-06T19:13:07.851Z,10.13
2023-04-06T19:17:17.172Z,5.37
2023-04-06T19:21:28.195Z,7.77
2023-04-06T19:25:37.388Z,7.27
2023-04-06T19:29:47.964Z,5.80
2023-04-06T19:33:57.531Z,8.00
2023-04-06T19:38:06.516Z,7.33
2023-04-06T19:42:16.344Z,6.83
2023-04-06T19:46:27.174Z,6.60
2023-04-06T19:50:36.335Z,8.17
2023-04-06T19:54:47.242Z,9.17
2023-04-06T19:58:56.615Z,3.60
2023-04-06T20:03:07.804Z,6.43
2023-04-06T20:07:16.843Z,8.70
2023-04-06T20:11:25.729Z,9.30
2023-04-06T20:15:34.608Z,6.70
2023-04-06T20:19:44.982Z,8.50
2023-04-06T20:23:53.890Z,7.23
2023-04-06T20:28:02.818Z,8.47
2023-04-06T20:32:12.629Z,4.97
2023-04-06T20:36:23.187Z,4.43
2023-04-06T20:40:32.114Z,9.60
2023-04-06T20:44:41.158Z,5.47
2023-04-06T20:48:50.136Z,7.97
2023-04-06T20:53:00.424Z,6.83
2023-04-06T20:57:09.429Z,5.47
2023-04-06T21:01:19.322Z,8.97
2023-04-06T21:05:28.422Z,9.70
2023-04-06T21:09:39.659Z,7.03
2023-04-06T21:13:49.056Z,6.83
2023-04-06T21:17:58.852Z,9.47
2023-04-06T21:22:09.080Z,9.43
2023-04-06T21:26:23.791Z,13.00
2023-04-06T21:30:37.341Z,8.10
2023-04-06T21:34:46.869Z,6.27
2023-04-06T21:38:55.715Z,3.53
2023-04-06T21:43:06.195Z,7.43
2023-04-06T21:47:14.944Z,8.30
2023-04-06T21:51:25.093Z,6.23
2023-04-06T21:55:34.003Z,8.90
2023-04-06T21:59:44.367Z,6.47
2023-04-06T22:03:53.499Z,8.50
2023-04-06T22:08:03.488Z,9.77
2023-04-06T22:12:12.551Z,11.07
2023-04-06T22:16:22.988Z,5.37
2023-04-06T22:20:32.241Z,7.37
2023-04-06T22:24:41.126Z,7.03
2023-04-06T22:28:50.054Z,6.00
2023-04-06T22:33:00.833Z,7.33
2023-04-06T22:37:09.751Z,6.10
2023-04-06T22:41:18.671Z,7.87
2023-04-06T22:45:27.605Z,7.50
2023-04-06T22:49:38.092Z,7.33
2023-04-06T22:53:47.157Z,10.40
2023-04-06T22:57:56.190Z,9.37
2023-04-06T23:02:05.216Z,8.73
2023-04-06T23:06:20.727Z,6.53
2023-04-06T23:10:30.142Z,7.70
2023-04-06T23:14:39.027Z,5.70
2023-04-06T23:18:47.904Z,11.03
2023-04-06T23:22:58.818Z,7.37
2023-04-06T23:27:07.782Z,9.30
2023-04-06T23:31:16.667Z,6.80
2023-04-06T23:35:25.629Z,6.53
2023-04-06T23:39:36.860Z,5.73
2023-04-06T23:43:45.720Z,4.57
2023-04-06T23:47:54.705Z,8.97
2023-04-06T23:52:03.651Z,5.13
2023-04-06T23:56:13.961Z,10.30
